createdAt,value
2022-10-14T00:02:12.819Z,23.90
2022-10-14T00:07:18.942Z,21.30
2022-10-14T00:12:25.190Z,23.20
2022-10-14T00:17:31.033Z,24.40
2022-10-14T00:22:37.230Z,25.00
2022-10-14T00:27:43.191Z,21.30
2022-10-14T00:32:51.024Z,19.60
2022-10-14T00:39:34.689Z,20.70
2022-10-14T00:45:02.915Z,20.90
2022-10-14T00:50:10.175Z,18.80
2022-10-14T00:55:18.610Z,18.30
2022-10-14T01:00:24.582Z,19.50
2022-10-14T01:05:36.727Z,19.50
2022-10-14T01:10:49.436Z,18.60
2022-10-14T01:16:02.770Z,16.40
2022-10-14T01:21:18.282Z,18.40
2022-10-14T01:26:39.791Z,17.40
2022-10-14T01:31:48.955Z,15.90
2022-10-14T01:37:00.045Z,15.80
2022-10-14T01:42:11.641Z,15.40
2022-10-14T01:47:21.596Z,16.30
2022-10-14T01:52:32.414Z,15.90
2022-10-14T01:57:41.326Z,15.50
2022-10-14T02:02:47.294Z,13.80
2022-10-14T02:08:04.117Z,16.10
2022-10-14T02:13:23.652Z,16.50
2022-10-14T02:18:38.435Z,16.50
2022-10-14T02:23:50.046Z,15.80
2022-10-14T02:28:58.376Z,15.60
2022-10-14T02:34:07.399Z,16.20
2022-10-14T02:39:21.320Z,17.80
2022-10-14T02:44:27.210Z,16.50
2022-10-14T02:49:33.550Z,15.80
2022-10-14T02:54:39.254Z,17.00
2022-10-14T02:59:45.150Z,17.00
2022-10-14T03:04:50.922Z,16.50
2022-10-14T03:09:56.709Z,17.40
2022-10-14T03:15:03.621Z,17.10
2022-10-14T03:20:11.325Z,16.90
2022-10-14T03:25:24.264Z,17.20
2022-10-14T03:30:42.141Z,17.70
2022-10-14T03:35:53.369Z,17.80
2022-10-14T03:41:04.499Z,15.80
2022-10-14T03:46:11.254Z,15.90
2022-10-14T03:51:17.330Z,16.90
2022-10-14T03:56:24.822Z,18.00
2022-10-14T04:01:32.110Z,17.80
2022-10-14T04:06:59.578Z,16.30
2022-10-14T04:12:07.495Z,18.90
2022-10-14T04:17:33.070Z,19.10
2022-10-14T04:22:41.706Z,17.80
2022-10-14T04:27:47.667Z,19.70
2022-10-14T04:32:53.974Z,18.70
2022-10-14T04:38:00.318Z,19.20
2022-10-14T04:43:08.553Z,17.80
2022-10-14T04:48:18.390Z,17.20
2022-10-14T04:53:24.451Z,17.20
2022-10-14T04:58:56.472Z,22.40
2022-10-14T05:04:09.844Z,21.40
2022-10-14T05:09:16.974Z,19.90
2022-10-14T05:14:23.506Z,21.60
2022-10-14T05:19:37.998Z,23.30
2022-10-14T05:24:44.445Z,19.40
2022-10-14T05:29:51.274Z,20.30
2022-10-14T05:34:57.114Z,21.30
2022-10-14T05:40:12.429Z,20.30
2022-10-14T05:45:18.887Z,20.70
2022-10-14T05:50:29.066Z,22.20
2022-10-14T05:55:41.802Z,22.40
2022-10-14T06:00:47.768Z,20.60
2022-10-14T06:05:54.162Z,20.70
2022-10-14T06:11:04.629Z,22.40
2022-10-14T06:16:12.119Z,21.50
2022-10-14T06:21:17.903Z,21.70
2022-10-14T06:26:24.558Z,20.40
2022-10-14T06:31:32.465Z,22.70
2022-10-14T06:36:38.774Z,21.70
2022-10-14T06:41:44.887Z,21.00
2022-10-14T06:46:58.040Z,21.10
2022-10-14T06:52:04.134Z,21.90
2022-10-14T06:57:09.846Z,22.70
2022-10-14T07:02:15.533Z,22.30
2022-10-14T07:07:21.203Z,23.60
2022-10-14T07:12:27.613Z,24.70
2022-10-14T07:17:33.570Z,24.50
2022-10-14T07:22:39.669Z,24.60
2022-10-14T07:27:45.537Z,22.60
2022-10-14T07:32:51.764Z,24.90
2022-10-14T07:37:59.958Z,24.60
2022-10-14T07:43:05.812Z,24.00
2022-10-14T07:48:11.479Z,24.30
2022-10-14T07:53:19.165Z,24.40
2022-10-14T07:58:27.509Z,24.80
2022-10-14T08:03:33.344Z,23.10
2022-10-14T08:08:39.192Z,20.20
2022-10-14T08:13:46.342Z,21.00
2022-10-14T08:18:57.500Z,19.30
2022-10-14T08:24:03.700Z,17.40
2022-10-14T08:29:12.218Z,17.10
2022-10-14T08:34:21.223Z,18.00
2022-10-14T08:39:27.137Z,15.90
2022-10-14T08:44:42.491Z,14.30
2022-10-14T08:50:04.564Z,14.60
2022-10-14T08:55:26.048Z,13.40
2022-10-14T09:00:33.775Z,13.80
2022-10-14T09:05:40.841Z,13.80
2022-10-14T09:10:47.008Z,14.20
2022-10-14T09:16:00.478Z,14.00
2022-10-14T09:21:40.505Z,14.80
2022-10-14T09:26:51.785Z,13.70
2022-10-14T09:32:01.726Z,12.30
2022-10-14T09:37:28.845Z,12.00
2022-10-14T09:42:48.149Z,12.50
2022-10-14T09:47:57.018Z,12.20
2022-10-14T09:53:10.730Z,12.80
2022-10-14T09:58:20.921Z,14.70
2022-10-14T10:03:29.891Z,12.70
2022-10-14T10:08:38.312Z,13.20
2022-10-14T10:13:46.222Z,13.20
2022-10-14T10:18:55.245Z,13.20
2022-10-14T10:24:03.814Z,16.00
2022-10-14T10:29:25.799Z,15.70
2022-10-14T10:34:55.090Z,14.50
2022-10-14T10:40:27.775Z,13.40
2022-10-14T10:45:47.792Z,12.50
2022-10-14T10:51:00.345Z,14.00
2022-10-14T10:56:17.097Z,13.90
2022-10-14T11:01:42.824Z,13.90
2022-10-14T11:07:25.332Z,13.10
2022-10-14T11:12:42.425Z,12.70
2022-10-14T11:17:54.130Z,12.20
2022-10-14T11:23:34.749Z,12.30
2022-10-14T11:28:46.759Z,11.80
2022-10-14T11:34:19.559Z,12.20
2022-10-14T11:39:36.259Z,12.50
2022-10-14T11:44:44.087Z,14.00
2022-10-14T11:49:58.818Z,13.00
2022-10-14T11:55:13.797Z,14.80
2022-10-14T12:00:23.973Z,13.90
2022-10-14T12:05:56.406Z,14.50
2022-10-14T12:11:07.059Z,14.00
2022-10-14T12:16:16.300Z,13.90
2022-10-14T12:21:30.981Z,14.40
2022-10-14T12:26:50.774Z,14.20
2022-10-14T12:32:19.920Z,15.20
2022-10-14T12:37:52.499Z,13.90
2022-10-14T12:43:17.086Z,14.30
2022-10-14T12:48:25.329Z,15.00
2022-10-14T12:53:33.667Z,14.80
2022-10-14T12:58:55.814Z,14.50
2022-10-14T13:04:05.397Z,14.70
2022-10-14T13:09:32.908Z,15.40
2022-10-14T13:14:58.406Z,14.20
2022-10-14T13:20:04.834Z,15.20
2022-10-14T13:25:19.584Z,15.90
2022-10-14T13:30:34.953Z,15.70
2022-10-14T13:35:52.681Z,16.70
2022-10-14T13:40:59.536Z,18.10
2022-10-14T13:46:08.675Z,21.60
2022-10-14T13:51:36.498Z,20.80
2022-10-14T13:56:43.222Z,19.10
2022-10-14T14:01:49.463Z,17.80
2022-10-14T14:07:06.790Z,17.70
2022-10-14T14:12:23.005Z,16.40
2022-10-14T14:17:33.486Z,16.40
2022-10-14T14:22:43.693Z,16.40
2022-10-14T14:27:54.592Z,16.50
2022-10-14T14:38:23.443Z,17.70
2022-10-14T14:43:34.751Z,17.40
2022-10-14T14:48:44.130Z,21.00
2022-10-14T14:53:53.800Z,18.80
2022-10-14T14:59:19.211Z,20.10
2022-10-14T15:04:27.318Z,25.50
2022-10-14T15:09:38.404Z,27.70
2022-10-14T15:19:51.178Z,20.80
2022-10-14T15:25:01.717Z,21.60
2022-10-14T15:30:28.278Z,22.80
2022-10-14T15:35:35.578Z,21.90
2022-10-14T15:40:42.173Z,18.00
2022-10-14T15:46:10.037Z,17.90
2022-10-14T15:51:17.609Z,23.20
2022-10-14T15:56:23.588Z,20.00
2022-10-14T16:01:29.443Z,22.50
2022-10-14T16:06:35.431Z,23.60
2022-10-14T16:11:41.225Z,22.70
2022-10-14T16:16:48.377Z,20.90
2022-10-14T16:21:54.167Z,21.20
2022-10-14T16:27:00.077Z,23.20
2022-10-14T16:32:06.193Z,24.30
2022-10-14T16:37:12.152Z,24.80
2022-10-14T16:42:19.010Z,26.10
2022-10-14T16:47:25.094Z,24.90
2022-10-14T16:52:51.774Z,24.20
2022-10-14T16:57:57.543Z,24.40
2022-10-14T17:03:03.537Z,26.80
2022-10-14T17:08:09.475Z,24.40
2022-10-14T17:13:15.800Z,26.80
2022-10-14T17:18:25.663Z,27.00
2022-10-14T17:23:34.423Z,29.10
2022-10-14T17:28:41.595Z,29.10
2022-10-14T17:33:49.949Z,32.70
2022-10-14T17:38:57.249Z,32.00
2022-10-14T17:44:03.112Z,27.20
2022-10-14T17:49:09.980Z,29.10
2022-10-14T17:54:15.695Z,29.30
2022-10-14T17:59:21.678Z,35.60
2022-10-14T18:04:27.568Z,30.70
2022-10-14T18:09:34.821Z,28.80
2022-10-14T18:14:41.189Z,99.90
2022-10-14T18:19:51.971Z,35.90
2022-10-14T18:25:05.180Z,35.80
2022-10-14T18:30:12.928Z,39.80
2022-10-14T18:35:18.891Z,34.70
2022-10-14T18:40:24.754Z,28.60
2022-10-14T18:45:33.114Z,27.30
2022-10-14T18:50:39.102Z,31.10
2022-10-14T18:55:45.032Z,33.40
2022-10-14T19:00:53.433Z,29.90
2022-10-14T19:06:00.427Z,28.80
2022-10-14T19:11:10.499Z,30.30
2022-10-14T19:16:19.138Z,30.20
2022-10-14T19:21:29.758Z,33.70
2022-10-14T19:26:38.137Z,36.60
2022-10-14T19:31:44.268Z,31.40
2022-10-14T19:36:50.626Z,33.10
2022-10-14T19:41:56.419Z,34.90
2022-10-14T19:47:02.143Z,32.90
2022-10-14T19:52:08.202Z,32.10
2022-10-14T19:57:14.359Z,32.90
2022-10-14T20:02:20.254Z,33.70
2022-10-14T20:07:26.225Z,34.70
2022-10-14T20:12:33.493Z,30.80
2022-10-14T20:17:39.346Z,32.50
2022-10-14T20:22:45.140Z,34.10
2022-10-14T20:27:50.845Z,34.50
2022-10-14T20:32:56.686Z,33.40
2022-10-14T20:38:02.538Z,33.30
2022-10-14T20:43:08.469Z,35.00
2022-10-14T20:48:14.482Z,36.40
2022-10-14T20:53:20.437Z,35.20
2022-10-14T20:58:26.295Z,31.50
2022-10-14T21:03:32.034Z,33.70
2022-10-14T21:08:38.139Z,36.10
2022-10-14T21:13:45.439Z,33.40
2022-10-14T21:18:55.340Z,31.60
2022-10-14T21:24:03.686Z,31.20
2022-10-14T21:29:10.223Z,32.50
2022-10-14T21:34:16.301Z,34.00
2022-10-14T21:39:24.140Z,32.00
2022-10-14T21:44:29.839Z,28.90
2022-10-14T21:49:35.933Z,32.80
2022-10-14T21:54:41.683Z,32.50
2022-10-14T21:59:47.849Z,33.90
2022-10-14T22:04:53.682Z,32.10
2022-10-14T22:09:59.375Z,31.70
2022-10-14T22:15:06.493Z,31.40
2022-10-14T22:20:12.994Z,36.20
2022-10-14T22:25:18.920Z,37.40
2022-10-14T22:30:24.816Z,37.00
2022-10-14T22:35:30.750Z,36.80
2022-10-14T22:40:36.770Z,35.80
2022-10-14T22:45:43.051Z,40.30
2022-10-14T22:50:50.409Z,38.30
2022-10-14T22:55:56.626Z,36.60
2022-10-14T23:01:09.752Z,35.40
2022-10-14T23:06:16.773Z,35.70
2022-10-14T23:11:25.080Z,39.70
2022-10-14T23:16:33.711Z,38.30
2022-10-14T23:21:40.042Z,37.20
2022-10-14T23:26:46.068Z,35.20
2022-10-14T23:31:51.878Z,39.50
2022-10-14T23:36:57.880Z,37.20
2022-10-14T23:42:03.733Z,35.30
2022-10-14T23:47:09.785Z,35.40
2022-10-14T23:52:15.515Z,38.60
2022-10-14T23:57:21.976Z,39.20
